LAN5345 SCEL-SLLP
Flight info
| Callsign | LAN5345 |
|---|---|
| Flight time | N/A |
| Altitude | 24000 |
| Route | DILOK7B DILOK Q814 PABOS/N0441F360 UT276 ENTOP/N0387F240 Q815 LOA/N0447F380 UL309 EMPEX/N0446F370 UL309 IROBO |
| Aircraft | A320/M-SDE3FGHIRWY/LB1 |
Departure
| Time | 2026-05-07 07:31 |
|---|---|
| Airport | Comodoro Arturo Merino Benítez International Airport (SCEL) |
Arrival
| Time | N/A |
|---|---|
| Airport | El Alto International Airport (SLLP) |
| Time | Latitude | Longitude | Altitude | Speed | Heading |
|---|---|---|---|---|---|
| 2026-05-07 07:14 | -33.39602 | -70.79453 | 1565 ft | 0 kts | 176° |
| 2026-05-07 07:18 | -33.39587 | -70.79454 | 1564 ft | 4 kts | 178° |
| 2026-05-07 07:18 | -33.39560 | -70.79454 | 1564 ft | 4 kts | 184° |
| 2026-05-07 07:19 | -33.39534 | -70.79450 | 1564 ft | 4 kts | 199° |
| 2026-05-07 07:19 | -33.39513 | -70.79435 | 1564 ft | 4 kts | 248° |
| 2026-05-07 07:19 | -33.39510 | -70.79427 | 1564 ft | 0 kts | 267° |
| 2026-05-07 07:21 | -33.39511 | -70.79430 | 1564 ft | 2 kts | 267° |
| 2026-05-07 07:22 | -33.39512 | -70.79463 | 1564 ft | 6 kts | 267° |
| 2026-05-07 07:22 | -33.39515 | -70.79535 | 1564 ft | 11 kts | 267° |
| 2026-05-07 07:22 | -33.39519 | -70.79646 | 1564 ft | 16 kts | 266° |
| 2026-05-07 07:22 | -33.39527 | -70.79796 | 1565 ft | 20 kts | 266° |
| 2026-05-07 07:23 | -33.39529 | -70.79920 | 1565 ft | 4 kts | 270° |
| 2026-05-07 07:23 | -33.39530 | -70.79950 | 1565 ft | 5 kts | 269° |
| 2026-05-07 07:23 | -33.39531 | -70.80013 | 1565 ft | 10 kts | 273° |
| 2026-05-07 07:23 | -33.39464 | -70.80047 | 1566 ft | 14 kts | 357° |
| 2026-05-07 07:24 | -33.39350 | -70.80052 | 1566 ft | 19 kts | 358° |
| 2026-05-07 07:24 | -33.39203 | -70.80060 | 1566 ft | 23 kts | 356° |
| 2026-05-07 07:24 | -33.39026 | -70.80071 | 1567 ft | 28 kts | 358° |
| 2026-05-07 07:24 | -33.38824 | -70.80082 | 1567 ft | 30 kts | 357° |
| 2026-05-07 07:25 | -33.38397 | -70.80105 | 1566 ft | 31 kts | 357° |
| 2026-05-07 07:25 | -33.38176 | -70.80118 | 1566 ft | 32 kts | 358° |
| 2026-05-07 07:25 | -33.37954 | -70.80129 | 1566 ft | 29 kts | 358° |
| 2026-05-07 07:26 | -33.37752 | -70.80140 | 1566 ft | 29 kts | 358° |
| 2026-05-07 07:26 | -33.37547 | -70.80150 | 1566 ft | 30 kts | 357° |
| 2026-05-07 07:26 | -33.37337 | -70.80161 | 1567 ft | 30 kts | 357° |
| 2026-05-07 07:26 | -33.37155 | -70.80174 | 1567 ft | 19 kts | 345° |
| 2026-05-07 07:27 | -33.37108 | -70.80237 | 1569 ft | 0 kts | 286° |
| 2026-05-07 07:29 | -33.37107 | -70.80242 | 1569 ft | 2 kts | 286° |
| 2026-05-07 07:29 | -33.37103 | -70.80265 | 1570 ft | 4 kts | 277° |
| 2026-05-07 07:29 | -33.37105 | -70.80299 | 1572 ft | 4 kts | 259° |
| 2026-05-07 07:29 | -33.37119 | -70.80340 | 1574 ft | 7 kts | 238° |
| 2026-05-07 07:30 | -33.37181 | -70.80374 | 1573 ft | 13 kts | 186° |
| 2026-05-07 07:30 | -33.37225 | -70.80373 | 1573 ft | 7 kts | 177° |
| 2026-05-07 07:30 | -33.37280 | -70.80370 | 1573 ft | 8 kts | 178° |
| 2026-05-07 07:30 | -33.37359 | -70.80366 | 1573 ft | 28 kts | 178° |
| 2026-05-07 07:31 | -33.37808 | -70.80341 | 1572 ft | 97 kts | 177° |
| 2026-05-07 07:31 | -33.38677 | -70.80294 | 1575 ft | 151 kts | 178° |
| 2026-05-07 07:31 | -33.39823 | -70.80237 | 1928 ft | 167 kts | 177° |
| 2026-05-07 07:31 | -33.41009 | -70.80169 | 2446 ft | 178 kts | 176° |
| 2026-05-07 07:32 | -33.42326 | -70.80089 | 2761 ft | 201 kts | 176° |
| 2026-05-07 07:32 | -33.43805 | -70.80000 | 3065 ft | 225 kts | 176° |
| 2026-05-07 07:32 | -33.45454 | -70.79904 | 3508 ft | 248 kts | 176° |
| 2026-05-07 07:32 | -33.47218 | -70.79826 | 4234 ft | 258 kts | 182° |
| 2026-05-07 07:33 | -33.48966 | -70.80421 | 4984 ft | 268 kts | 211° |
| 2026-05-07 07:33 | -33.50301 | -70.81981 | 5790 ft | 273 kts | 240° |
| 2026-05-07 07:33 | -33.50888 | -70.84123 | 6655 ft | 273 kts | 268° |
| 2026-05-07 07:33 | -33.50614 | -70.86361 | 7481 ft | 274 kts | 288° |
| 2026-05-07 07:34 | -33.50018 | -70.88534 | 8341 ft | 276 kts | 287° |
| 2026-05-07 07:34 | -33.49408 | -70.90736 | 9126 ft | 281 kts | 286° |
| 2026-05-07 07:34 | -33.48790 | -70.92973 | 9952 ft | 284 kts | 285° |
| 2026-05-07 07:34 | -33.48036 | -70.95212 | 10461 ft | 303 kts | 301° |
| 2026-05-07 07:35 | -33.46432 | -70.96992 | 10700 ft | 332 kts | 330° |
| 2026-05-07 07:35 | -33.44178 | -70.97880 | 11108 ft | 350 kts | 349° |
| 2026-05-07 07:35 | -33.41722 | -70.97992 | 11797 ft | 358 kts | 3° |
| 2026-05-07 07:35 | -33.39230 | -70.97750 | 12549 ft | 361 kts | 2° |
| 2026-05-07 07:36 | -33.36712 | -70.97537 | 13293 ft | 364 kts | 2° |
| 2026-05-07 07:36 | -33.34174 | -70.97330 | 14018 ft | 367 kts | 2° |
| 2026-05-07 07:36 | -33.31610 | -70.97116 | 14633 ft | 371 kts | 2° |
| 2026-05-07 07:36 | -33.29021 | -70.96890 | 15253 ft | 375 kts | 2° |
| 2026-05-07 07:37 | -33.26409 | -70.96654 | 15843 ft | 379 kts | 2° |
| 2026-05-07 07:37 | -33.23773 | -70.96336 | 16401 ft | 384 kts | 7° |
| 2026-05-07 07:37 | -33.21175 | -70.95485 | 16976 ft | 391 kts | 19° |
| 2026-05-07 07:37 | -33.18720 | -70.94033 | 17549 ft | 397 kts | 31° |
| 2026-05-07 07:38 | -33.16446 | -70.92119 | 18147 ft | 402 kts | 34° |
| 2026-05-07 07:38 | -33.14171 | -70.90160 | 18682 ft | 406 kts | 34° |
| 2026-05-07 07:38 | -33.11893 | -70.88216 | 19186 ft | 410 kts | 34° |
| 2026-05-07 07:38 | -33.09568 | -70.86239 | 19743 ft | 411 kts | 33° |
| 2026-05-07 07:39 | -33.07230 | -70.84252 | 20302 ft | 414 kts | 33° |
| 2026-05-07 07:39 | -33.04879 | -70.82255 | 20829 ft | 417 kts | 33° |
| 2026-05-07 07:39 | -33.02515 | -70.80222 | 21339 ft | 421 kts | 34° |
| 2026-05-07 07:39 | -33.00150 | -70.78137 | 21838 ft | 424 kts | 34° |
| 2026-05-07 07:40 | -32.97780 | -70.76018 | 22328 ft | 428 kts | 34° |
| 2026-05-07 07:40 | -32.95360 | -70.73848 | 22819 ft | 431 kts | 34° |
| 2026-05-07 07:40 | -32.92826 | -70.71935 | 23261 ft | 432 kts | 24° |
| 2026-05-07 07:40 | -32.90067 | -70.70528 | 23703 ft | 431 kts | 14° |
| 2026-05-07 07:41 | -32.87205 | -70.69668 | 24068 ft | 429 kts | 5° |
| 2026-05-07 07:41 | -32.84199 | -70.69332 | 24396 ft | 429 kts | 358° |
| 2026-05-07 07:41 | -32.81239 | -70.69155 | 24707 ft | 434 kts | 358° |
| 2026-05-07 07:41 | -32.78210 | -70.68960 | 25020 ft | 438 kts | 358° |
| 2026-05-07 07:42 | -32.75151 | -70.68754 | 25320 ft | 442 kts | 359° |
| 2026-05-07 07:42 | -32.72065 | -70.68544 | 25609 ft | 447 kts | 359° |
| 2026-05-07 07:42 | -32.68946 | -70.68333 | 25901 ft | 451 kts | 359° |
| 2026-05-07 07:42 | -32.65802 | -70.68120 | 26189 ft | 454 kts | 358° |
| 2026-05-07 07:43 | -32.62638 | -70.67907 | 26505 ft | 458 kts | 358° |
| 2026-05-07 07:43 | -32.59441 | -70.67693 | 26797 ft | 462 kts | 358° |
| 2026-05-07 07:43 | -32.56219 | -70.67479 | 27080 ft | 466 kts | 358° |
| 2026-05-07 07:43 | -32.52972 | -70.67264 | 27361 ft | 469 kts | 358° |
| 2026-05-07 07:44 | -32.49697 | -70.67046 | 27632 ft | 473 kts | 358° |
| 2026-05-07 07:44 | -32.46399 | -70.66826 | 27904 ft | 477 kts | 358° |
| 2026-05-07 07:44 | -32.43073 | -70.66605 | 28188 ft | 481 kts | 358° |
| 2026-05-07 07:44 | -32.39717 | -70.66382 | 28448 ft | 485 kts | 358° |
| 2026-05-07 07:45 | -32.36335 | -70.66158 | 28718 ft | 488 kts | 358° |
| 2026-05-07 07:45 | -32.32932 | -70.65936 | 28972 ft | 492 kts | 358° |
| 2026-05-07 07:45 | -32.29501 | -70.65714 | 29197 ft | 495 kts | 358° |
| 2026-05-07 07:45 | -32.26047 | -70.65489 | 29454 ft | 499 kts | 358° |
| 2026-05-07 07:46 | -32.22572 | -70.65259 | 29664 ft | 502 kts | 358° |
| 2026-05-07 07:46 | -32.19075 | -70.65027 | 29886 ft | 505 kts | 358° |
| 2026-05-07 07:46 | -32.15553 | -70.64793 | 30041 ft | 508 kts | 358° |
| 2026-05-07 07:46 | -32.12021 | -70.64558 | 30290 ft | 509 kts | 358° |
| 2026-05-07 07:47 | -32.08476 | -70.64326 | 30457 ft | 511 kts | 358° |
| 2026-05-07 07:47 | -32.04917 | -70.64097 | 30646 ft | 513 kts | 358° |
| 2026-05-07 07:47 | -32.01357 | -70.63867 | 30894 ft | 512 kts | 358° |
| 2026-05-07 07:47 | -31.97798 | -70.63634 | 31138 ft | 512 kts | 358° |
| 2026-05-07 07:48 | -31.94244 | -70.63398 | 31389 ft | 511 kts | 358° |
| 2026-05-07 07:48 | -31.90694 | -70.63176 | 31580 ft | 511 kts | 357° |
| 2026-05-07 07:48 | -31.87147 | -70.62995 | 31892 ft | 508 kts | 355° |
| 2026-05-07 07:48 | -31.83624 | -70.62850 | 32217 ft | 506 kts | 355° |
| 2026-05-07 07:49 | -31.80154 | -70.62722 | 32504 ft | 505 kts | 355° |
| 2026-05-07 07:49 | -31.76644 | -70.62594 | 32792 ft | 505 kts | 355° |
| 2026-05-07 07:49 | -31.73129 | -70.62461 | 33105 ft | 504 kts | 355° |
| 2026-05-07 07:49 | -31.69626 | -70.62318 | 33394 ft | 504 kts | 355° |
| 2026-05-07 07:50 | -31.66122 | -70.62167 | 33688 ft | 504 kts | 355° |
| 2026-05-07 07:50 | -31.62623 | -70.62010 | 33974 ft | 502 kts | 355° |
| 2026-05-07 07:50 | -31.59143 | -70.61851 | 34378 ft | 499 kts | 355° |
| 2026-05-07 07:50 | -31.55682 | -70.61694 | 34657 ft | 497 kts | 355° |
| 2026-05-07 07:51 | -31.52223 | -70.61541 | 34814 ft | 497 kts | 354° |
| 2026-05-07 07:51 | -31.48769 | -70.61391 | 35022 ft | 497 kts | 355° |
| 2026-05-07 07:51 | -31.45317 | -70.61244 | 35178 ft | 496 kts | 354° |
| 2026-05-07 07:51 | -31.41865 | -70.61102 | 35399 ft | 496 kts | 354° |
| 2026-05-07 07:52 | -31.38417 | -70.60962 | 35574 ft | 496 kts | 354° |
| 2026-05-07 07:52 | -31.34967 | -70.60807 | 35707 ft | 497 kts | 355° |
| 2026-05-07 07:52 | -31.31504 | -70.60299 | 35942 ft | 505 kts | 4° |
| 2026-05-07 07:52 | -31.28058 | -70.59489 | 36137 ft | 505 kts | 4° |
| 2026-05-07 07:53 | -31.24605 | -70.58673 | 36198 ft | 506 kts | 4° |
| 2026-05-07 07:53 | -31.17705 | -70.57038 | 36222 ft | 506 kts | 4° |
| 2026-05-07 07:54 | -31.10801 | -70.55414 | 36154 ft | 506 kts | 4° |
| 2026-05-07 07:54 | -31.03921 | -70.53798 | 36238 ft | 503 kts | 2° |
| 2026-05-07 07:55 | -30.97082 | -70.52197 | 36199 ft | 500 kts | 2° |
| 2026-05-07 07:55 | -30.90241 | -70.50609 | 36216 ft | 502 kts | 2° |
| 2026-05-07 07:56 | -30.83400 | -70.49024 | 36166 ft | 501 kts | 2° |
| 2026-05-07 07:56 | -30.76608 | -70.47447 | 36175 ft | 501 kts | 1° |
| 2026-05-07 07:57 | -30.69769 | -70.45860 | 36193 ft | 501 kts | 1° |
| 2026-05-07 07:57 | -30.62937 | -70.44262 | 36199 ft | 500 kts | 1° |
| 2026-05-07 07:58 | -30.56108 | -70.42677 | 36207 ft | 501 kts | 1° |
| 2026-05-07 07:58 | -30.49299 | -70.41106 | 36199 ft | 497 kts | 360° |
| 2026-05-07 07:59 | -30.42539 | -70.39547 | 36205 ft | 493 kts | 360° |
| 2026-05-07 07:59 | -30.35819 | -70.37994 | 36213 ft | 492 kts | 360° |
| 2026-05-07 08:00 | -30.29108 | -70.36451 | 36191 ft | 491 kts | 360° |
| 2026-05-07 08:00 | -30.22417 | -70.34918 | 36174 ft | 489 kts | 360° |
| 2026-05-07 08:01 | -30.15733 | -70.33380 | 36184 ft | 490 kts | 359° |
| 2026-05-07 08:01 | -30.09040 | -70.31841 | 36176 ft | 490 kts | 359° |
| 2026-05-07 08:02 | -30.02344 | -70.30309 | 36170 ft | 490 kts | 360° |
| 2026-05-07 08:02 | -29.96798 | -70.29040 | 36172 ft | 490 kts | 360° |
| 2026-05-07 08:03 | -29.90090 | -70.27513 | 36187 ft | 492 kts | 360° |
| 2026-05-07 08:03 | -29.83374 | -70.25988 | 36185 ft | 491 kts | 360° |
| 2026-05-07 08:04 | -29.76678 | -70.24456 | 36181 ft | 491 kts | 360° |
| 2026-05-07 08:04 | -29.69981 | -70.22922 | 36179 ft | 490 kts | 360° |
| 2026-05-07 08:05 | -29.63297 | -70.21407 | 36172 ft | 489 kts | 0° |
| 2026-05-07 08:05 | -29.56617 | -70.19890 | 36196 ft | 490 kts | 359° |
| 2026-05-07 08:06 | -29.49930 | -70.18379 | 36171 ft | 489 kts | 359° |
| 2026-05-07 08:06 | -29.43240 | -70.16866 | 36135 ft | 491 kts | 359° |
| 2026-05-07 08:07 | -29.36549 | -70.15351 | 36177 ft | 489 kts | 359° |
| 2026-05-07 08:07 | -29.29871 | -70.13845 | 36170 ft | 489 kts | 359° |
| 2026-05-07 08:08 | -29.23201 | -70.12340 | 36174 ft | 488 kts | 359° |
| 2026-05-07 08:08 | -29.16542 | -70.10836 | 36189 ft | 487 kts | 359° |
| 2026-05-07 08:09 | -29.09886 | -70.09339 | 36158 ft | 487 kts | 359° |
| 2026-05-07 08:09 | -29.03245 | -70.07847 | 36156 ft | 486 kts | 359° |
| 2026-05-07 08:10 | -28.96586 | -70.06366 | 36182 ft | 488 kts | 359° |
| 2026-05-07 08:10 | -28.89933 | -70.04878 | 36176 ft | 485 kts | 359° |
| 2026-05-07 08:11 | -28.83361 | -70.03404 | 36177 ft | 485 kts | 359° |
| 2026-05-07 08:11 | -28.76731 | -70.01926 | 36154 ft | 486 kts | 359° |
| 2026-05-07 08:12 | -28.70087 | -70.00452 | 36180 ft | 487 kts | 360° |
| 2026-05-07 08:12 | -28.63440 | -69.98967 | 36181 ft | 487 kts | 360° |
| 2026-05-07 08:13 | -28.56792 | -69.97483 | 36154 ft | 486 kts | 359° |
| 2026-05-07 08:13 | -28.50159 | -69.96010 | 36187 ft | 485 kts | 359° |
| 2026-05-07 08:14 | -28.43549 | -69.94653 | 36186 ft | 480 kts | 357° |
| 2026-05-07 08:14 | -28.36957 | -69.93456 | 36183 ft | 480 kts | 357° |
| 2026-05-07 08:15 | -28.30364 | -69.92261 | 36208 ft | 480 kts | 357° |
| 2026-05-07 08:15 | -28.23773 | -69.91019 | 36150 ft | 480 kts | 358° |
| 2026-05-07 08:16 | -28.17183 | -69.89757 | 36157 ft | 480 kts | 357° |
| 2026-05-07 08:16 | -28.10603 | -69.88510 | 36171 ft | 480 kts | 358° |
| 2026-05-07 08:17 | -28.04008 | -69.87275 | 36155 ft | 480 kts | 358° |
| 2026-05-07 08:17 | -27.97423 | -69.86033 | 36177 ft | 479 kts | 358° |
| 2026-05-07 08:18 | -27.90852 | -69.84795 | 36164 ft | 479 kts | 358° |
| 2026-05-07 08:18 | -27.84282 | -69.83557 | 36160 ft | 478 kts | 358° |
| 2026-05-07 08:19 | -27.77739 | -69.82331 | 36158 ft | 476 kts | 358° |
| 2026-05-07 08:19 | -27.71207 | -69.81121 | 36077 ft | 476 kts | 358° |
| 2026-05-07 08:20 | -27.64662 | -69.79906 | 36115 ft | 477 kts | 359° |
| 2026-05-07 08:20 | -27.58111 | -69.78684 | 36146 ft | 477 kts | 359° |
| 2026-05-07 08:21 | -27.51558 | -69.77458 | 36150 ft | 477 kts | 359° |
| 2026-05-07 08:21 | -27.45010 | -69.76231 | 36155 ft | 477 kts | 359° |
| 2026-05-07 08:22 | -27.38469 | -69.75003 | 36147 ft | 476 kts | 359° |
| 2026-05-07 08:22 | -27.31951 | -69.73790 | 36151 ft | 474 kts | 358° |
| 2026-05-07 08:23 | -27.25455 | -69.72584 | 36150 ft | 473 kts | 359° |
| 2026-05-07 08:23 | -27.18964 | -69.71384 | 36148 ft | 472 kts | 358° |
| 2026-05-07 08:24 | -27.12487 | -69.70193 | 36104 ft | 471 kts | 359° |
| 2026-05-07 08:24 | -27.06075 | -69.68999 | 36142 ft | 470 kts | 359° |
| 2026-05-07 08:25 | -26.99639 | -69.67804 | 36145 ft | 468 kts | 359° |
| 2026-05-07 08:25 | -26.93222 | -69.66623 | 36146 ft | 467 kts | 359° |
| 2026-05-07 08:26 | -26.83605 | -69.64848 | 36169 ft | 467 kts | 359° |
| 2026-05-07 08:26 | -26.77187 | -69.63673 | 36174 ft | 468 kts | 359° |
| 2026-05-07 08:27 | -26.70762 | -69.62493 | 36171 ft | 467 kts | 359° |
| 2026-05-07 08:27 | -26.64347 | -69.61312 | 36170 ft | 467 kts | 359° |
| 2026-05-07 08:28 | -26.57931 | -69.60128 | 36172 ft | 467 kts | 359° |
| 2026-05-07 08:28 | -26.51518 | -69.58941 | 36150 ft | 466 kts | 359° |
| 2026-05-07 08:29 | -26.45126 | -69.57769 | 36156 ft | 464 kts | 359° |
| 2026-05-07 08:29 | -26.38755 | -69.56606 | 36154 ft | 464 kts | 358° |
| 2026-05-07 08:30 | -26.32377 | -69.55449 | 36155 ft | 464 kts | 358° |
| 2026-05-07 08:30 | -26.26002 | -69.54289 | 36091 ft | 464 kts | 358° |
| 2026-05-07 08:31 | -26.19641 | -69.53122 | 36117 ft | 463 kts | 358° |
| 2026-05-07 08:31 | -26.13297 | -69.51964 | 36184 ft | 462 kts | 357° |
| 2026-05-07 08:32 | -26.06955 | -69.50810 | 36175 ft | 461 kts | 357° |
| 2026-05-07 08:32 | -26.00635 | -69.49662 | 36174 ft | 460 kts | 357° |
| 2026-05-07 08:33 | -25.94326 | -69.48515 | 36127 ft | 459 kts | 356° |
| 2026-05-07 08:33 | -25.88037 | -69.47374 | 36160 ft | 457 kts | 356° |
| 2026-05-07 08:34 | -25.81770 | -69.46249 | 36164 ft | 456 kts | 356° |
| 2026-05-07 08:34 | -25.75512 | -69.45117 | 36163 ft | 455 kts | 356° |
| 2026-05-07 08:35 | -25.69258 | -69.43974 | 36166 ft | 455 kts | 356° |
| 2026-05-07 08:35 | -25.63017 | -69.42842 | 36137 ft | 454 kts | 356° |
| 2026-05-07 08:36 | -25.56793 | -69.41726 | 36161 ft | 452 kts | 356° |
| 2026-05-07 08:36 | -25.50591 | -69.40612 | 36161 ft | 451 kts | 356° |
| 2026-05-07 08:37 | -25.44435 | -69.39500 | 36162 ft | 451 kts | 356° |
| 2026-05-07 08:37 | -25.38249 | -69.38383 | 36202 ft | 450 kts | 356° |
| 2026-05-07 08:38 | -25.32073 | -69.37267 | 36179 ft | 449 kts | 355° |
| 2026-05-07 08:38 | -25.25911 | -69.36167 | 36194 ft | 448 kts | 355° |
| 2026-05-07 08:39 | -25.19761 | -69.35072 | 36192 ft | 447 kts | 355° |
| 2026-05-07 08:39 | -25.13620 | -69.33972 | 36193 ft | 447 kts | 355° |
| 2026-05-07 08:40 | -25.07483 | -69.32865 | 36185 ft | 447 kts | 355° |
| 2026-05-07 08:40 | -25.01353 | -69.31763 | 36160 ft | 446 kts | 355° |
| 2026-05-07 08:41 | -24.95233 | -69.30669 | 36161 ft | 445 kts | 355° |
| 2026-05-07 08:41 | -24.89117 | -69.29583 | 36172 ft | 445 kts | 355° |
| 2026-05-07 08:42 | -24.83005 | -69.28499 | 36157 ft | 445 kts | 355° |
| 2026-05-07 08:42 | -24.76900 | -69.27416 | 36142 ft | 444 kts | 355° |
| 2026-05-07 08:43 | -24.70798 | -69.26324 | 36120 ft | 444 kts | 355° |
| 2026-05-07 08:43 | -24.64702 | -69.25235 | 36136 ft | 444 kts | 356° |
| 2026-05-07 08:44 | -24.58605 | -69.24154 | 36146 ft | 444 kts | 355° |
| 2026-05-07 08:44 | -24.52510 | -69.23077 | 36139 ft | 443 kts | 355° |